createdAt,value
2023-03-20T00:00:10.328Z,6.87
2023-03-20T00:02:38.476Z,6.97
2023-03-20T00:05:32.356Z,6.83
2023-03-20T00:07:59.713Z,7.10
2023-03-20T00:10:33.544Z,8.23
2023-03-20T00:13:01.552Z,8.07
2023-03-20T00:15:30.904Z,8.33
2023-03-20T00:17:58.420Z,8.80
2023-03-20T00:20:25.612Z,8.43
2023-03-20T00:22:52.730Z,8.97
2023-03-20T00:25:21.776Z,8.97
2023-03-20T00:27:48.988Z,8.73
2023-03-20T00:30:24.291Z,9.07
2023-03-20T00:32:52.093Z,8.87
2023-03-20T00:35:24.075Z,8.10
2023-03-20T00:37:51.912Z,7.90
2023-03-20T00:40:19.257Z,7.63
2023-03-20T00:42:47.520Z,8.33
2023-03-20T00:45:17.577Z,8.13
2023-03-20T00:47:45.672Z,8.20
2023-03-20T00:50:21.869Z,8.73
2023-03-20T00:52:49.289Z,8.00
2023-03-20T00:55:16.849Z,8.77
2023-03-20T00:57:45.608Z,7.50
2023-03-20T01:00:21.968Z,7.53
2023-03-20T01:02:49.113Z,8.20
2023-03-20T01:05:16.746Z,7.80
2023-03-20T01:07:45.504Z,8.43
2023-03-20T01:10:13.567Z,8.03
2023-03-20T01:12:41.709Z,7.70
2023-03-20T01:15:20.253Z,7.47
2023-03-20T01:17:48.446Z,7.97
2023-03-20T01:20:16.863Z,8.17
2023-03-20T01:22:44.063Z,8.30
2023-03-20T01:25:11.599Z,8.27
2023-03-20T01:27:38.798Z,8.33
2023-03-20T01:30:15.635Z,8.63
2023-03-20T01:32:43.914Z,8.40
2023-03-20T01:35:13.875Z,9.23
2023-03-20T01:37:41.420Z,8.77
2023-03-20T01:40:23.180Z,8.80
2023-03-20T01:42:51.114Z,9.23
2023-03-20T01:45:20.462Z,9.13
2023-03-20T01:47:48.204Z,9.43
2023-03-20T01:50:16.461Z,8.80
2023-03-20T01:52:43.655Z,9.03
2023-03-20T01:55:10.984Z,8.40
2023-03-20T01:57:38.568Z,8.43
2023-03-20T02:00:09.501Z,10.13
2023-03-20T02:02:37.764Z,9.20
2023-03-20T02:05:07.371Z,9.53
2023-03-20T02:07:36.000Z,9.60
2023-03-20T02:10:05.215Z,10.03
2023-03-20T02:12:32.335Z,10.20
2023-03-20T02:14:59.556Z,10.03
2023-03-20T02:17:26.671Z,10.60
2023-03-20T02:19:56.700Z,10.63
2023-03-20T02:22:42.378Z,11.83
2023-03-20T02:25:18.699Z,11.07
2023-03-20T02:27:48.603Z,11.67
2023-03-20T02:30:33.909Z,10.90
2023-03-20T02:33:07.193Z,11.20
2023-03-20T02:35:43.515Z,10.40
2023-03-20T02:38:10.579Z,10.27
2023-03-20T02:40:48.716Z,10.50
2023-03-20T02:43:19.873Z,10.63
2023-03-20T02:45:56.493Z,10.10
2023-03-20T02:48:33.035Z,9.33
2023-03-20T02:51:06.123Z,10.13
2023-03-20T02:53:36.071Z,10.00
2023-03-20T02:56:06.630Z,10.13
2023-03-20T02:58:33.709Z,10.57
2023-03-20T03:01:12.302Z,10.67
2023-03-20T03:03:43.262Z,10.27
2023-03-20T03:06:18.442Z,10.73
2023-03-20T03:08:48.018Z,10.23
2023-03-20T03:11:15.119Z,9.97
2023-03-20T03:13:47.830Z,10.60
2023-03-20T03:16:23.693Z,10.63
2023-03-20T03:18:54.230Z,9.90
2023-03-20T03:21:22.361Z,10.00
2023-03-20T03:23:49.967Z,9.83
2023-03-20T03:26:20.590Z,9.83
2023-03-20T03:28:51.047Z,10.07
2023-03-20T03:31:18.781Z,9.83
2023-03-20T03:33:47.448Z,9.97
2023-03-20T03:36:29.274Z,10.50
2023-03-20T03:39:05.253Z,10.33
2023-03-20T03:41:44.099Z,9.73
2023-03-20T03:44:43.768Z,10.77
2023-03-20T03:47:15.830Z,11.20
2023-03-20T03:49:45.306Z,10.40
2023-03-20T03:52:16.658Z,10.13
2023-03-20T03:55:07.189Z,10.03
2023-03-20T03:57:40.955Z,9.40
2023-03-20T04:00:09.608Z,9.30
2023-03-20T04:02:36.856Z,9.23
2023-03-20T04:05:05.274Z,8.83
2023-03-20T04:07:32.512Z,8.23
2023-03-20T04:09:59.570Z,8.70
2023-03-20T04:12:32.881Z,8.27
2023-03-20T04:15:02.467Z,8.13
2023-03-20T04:17:30.515Z,8.17
2023-03-20T04:19:57.904Z,7.80
2023-03-20T04:22:25.023Z,8.03
2023-03-20T04:24:52.685Z,7.83
2023-03-20T04:27:20.077Z,7.30
2023-03-20T04:29:47.691Z,7.97
2023-03-20T04:32:14.827Z,7.70
2023-03-20T04:34:42.237Z,7.60
2023-03-20T04:37:09.398Z,7.53
2023-03-20T04:39:37.480Z,7.07
2023-03-20T04:42:05.506Z,7.17
2023-03-20T04:44:32.770Z,6.27
2023-03-20T04:47:00.255Z,6.43
2023-03-20T04:49:27.368Z,7.13
2023-03-20T04:51:54.480Z,6.80
2023-03-20T04:54:21.671Z,6.83
2023-03-20T04:56:48.808Z,6.67
2023-03-20T04:59:15.855Z,6.90
2023-03-20T05:01:42.957Z,6.73
2023-03-20T05:04:10.271Z,6.63
2023-03-20T05:06:37.362Z,6.40
2023-03-20T05:09:04.443Z,6.10
2023-03-20T05:11:31.640Z,7.07
2023-03-20T05:13:58.729Z,6.40
2023-03-20T05:16:26.138Z,5.80
2023-03-20T05:18:53.246Z,6.00
2023-03-20T05:21:20.359Z,6.20
2023-03-20T05:23:47.418Z,5.90
2023-03-20T05:26:14.497Z,6.47
2023-03-20T05:28:41.554Z,6.40
2023-03-20T05:31:08.785Z,6.60
2023-03-20T05:33:38.046Z,6.70
2023-03-20T05:36:06.161Z,6.23
2023-03-20T05:38:33.409Z,5.50
2023-03-20T05:41:01.106Z,5.97
2023-03-20T05:43:29.137Z,5.77
2023-03-20T05:45:56.919Z,5.50
2023-03-20T05:48:24.579Z,6.33
2023-03-20T05:50:51.754Z,5.70
2023-03-20T05:53:18.871Z,6.00
2023-03-20T05:55:46.196Z,5.50
2023-03-20T05:58:13.584Z,5.00
2023-03-20T06:00:41.146Z,5.60
2023-03-20T06:03:08.297Z,5.30
2023-03-20T06:05:35.948Z,4.73
2023-03-20T06:08:03.228Z,4.20
2023-03-20T06:10:31.461Z,4.60
2023-03-20T06:13:00.865Z,4.33
2023-03-20T06:15:28.496Z,4.23
2023-03-20T06:17:56.189Z,4.40
2023-03-20T06:20:23.587Z,3.80
2023-03-20T06:22:50.881Z,4.30
2023-03-20T06:25:18.249Z,3.67
2023-03-20T06:27:46.979Z,3.33
2023-03-20T06:30:14.826Z,3.37
2023-03-20T06:32:42.006Z,3.40
2023-03-20T06:35:10.027Z,3.63
2023-03-20T06:37:37.821Z,3.70
2023-03-20T06:40:05.648Z,2.77
2023-03-20T06:42:32.918Z,3.10
2023-03-20T06:45:00.160Z,3.10
2023-03-20T06:47:27.342Z,2.80
2023-03-20T06:49:54.418Z,3.03
2023-03-20T06:52:25.268Z,3.17
2023-03-20T06:54:52.475Z,3.43
2023-03-20T06:57:20.111Z,2.83
2023-03-20T06:59:47.745Z,3.20
2023-03-20T07:02:15.011Z,3.10
2023-03-20T07:04:42.104Z,2.90
2023-03-20T07:07:09.960Z,3.20
2023-03-20T07:09:37.619Z,3.17
2023-03-20T07:12:05.026Z,3.30
2023-03-20T07:14:32.245Z,3.20
2023-03-20T07:16:59.412Z,3.27
2023-03-20T07:19:27.701Z,3.40
2023-03-20T07:21:58.785Z,2.93
2023-03-20T07:24:26.305Z,3.10
2023-03-20T07:26:53.480Z,3.17
2023-03-20T07:29:20.618Z,3.00
2023-03-20T07:31:47.953Z,2.87
2023-03-20T07:34:15.534Z,2.93
2023-03-20T07:36:42.688Z,3.27
2023-03-20T07:39:09.752Z,3.00
2023-03-20T07:41:37.202Z,2.83
2023-03-20T07:44:04.326Z,3.00
2023-03-20T07:46:31.491Z,3.00
2023-03-20T07:48:58.785Z,2.97
2023-03-20T07:51:26.151Z,2.80
2023-03-20T07:53:53.363Z,2.93
2023-03-20T07:56:21.343Z,3.03
2023-03-20T07:58:48.442Z,3.50
2023-03-20T08:01:16.196Z,3.13
2023-03-20T08:03:43.535Z,3.37
2023-03-20T08:06:10.962Z,3.07
2023-03-20T08:08:38.450Z,3.50
2023-03-20T08:11:05.872Z,3.03
2023-03-20T08:13:32.924Z,3.30
2023-03-20T08:16:00.053Z,3.40
2023-03-20T08:18:27.146Z,3.33
2023-03-20T08:20:54.323Z,3.00
2023-03-20T08:23:21.410Z,3.17
2023-03-20T08:25:49.614Z,3.13
2023-03-20T08:28:17.158Z,3.17
2023-03-20T08:30:44.349Z,3.30
2023-03-20T08:33:11.579Z,3.20
2023-03-20T08:35:38.901Z,2.97
2023-03-20T08:38:06.228Z,3.20
2023-03-20T08:40:33.504Z,3.70
2023-03-20T08:43:00.870Z,3.33
2023-03-20T08:45:28.016Z,4.00
2023-03-20T08:47:55.226Z,3.93
2023-03-20T08:50:22.617Z,4.00
2023-03-20T08:52:49.757Z,4.07
2023-03-20T08:55:17.201Z,4.07
2023-03-20T08:57:44.573Z,4.97
2023-03-20T09:00:14.272Z,4.70
2023-03-20T09:02:41.729Z,4.67
2023-03-20T09:05:09.240Z,5.63
2023-03-20T09:07:36.939Z,5.33
2023-03-20T09:10:04.664Z,5.50
2023-03-20T09:12:35.821Z,5.40
2023-03-20T09:15:03.352Z,5.30
2023-03-20T09:17:31.495Z,5.47
2023-03-20T09:19:59.012Z,5.80
2023-03-20T09:22:26.245Z,6.00
2023-03-20T09:24:53.330Z,5.87
2023-03-20T09:27:20.525Z,6.17
2023-03-20T09:29:47.670Z,6.40
2023-03-20T09:32:15.653Z,7.03
2023-03-20T09:34:42.724Z,7.37
2023-03-20T09:37:09.837Z,7.57
2023-03-20T09:39:37.050Z,8.60
2023-03-20T09:42:24.372Z,8.43
2023-03-20T09:45:06.695Z,7.57
2023-03-20T09:47:33.784Z,7.53
2023-03-20T09:50:23.760Z,7.87
2023-03-20T09:53:12.028Z,8.57
2023-03-20T09:55:40.438Z,9.03
2023-03-20T09:58:13.646Z,8.83
2023-03-20T10:00:41.380Z,8.83
2023-03-20T10:03:18.153Z,9.73
2023-03-20T10:05:46.968Z,9.60
2023-03-20T10:08:18.673Z,10.33
2023-03-20T10:10:52.275Z,10.60
2023-03-20T10:13:36.212Z,10.13
2023-03-20T10:16:06.428Z,10.27
2023-03-20T10:18:35.498Z,10.13
2023-03-20T10:21:05.446Z,10.40
2023-03-20T10:23:51.006Z,10.40
2023-03-20T10:26:19.793Z,10.33
2023-03-20T10:28:48.495Z,11.07
2023-03-20T10:31:27.939Z,10.53
2023-03-20T10:34:09.810Z,10.83
2023-03-20T10:36:47.161Z,11.10
2023-03-20T10:39:32.207Z,11.07
2023-03-20T10:42:02.217Z,10.30
2023-03-20T10:44:37.526Z,10.10
2023-03-20T10:47:07.024Z,10.43
2023-03-20T10:49:53.024Z,10.10
2023-03-20T10:52:23.354Z,10.10
2023-03-20T10:54:53.350Z,10.13
2023-03-20T10:57:25.122Z,10.23
2023-03-20T10:59:53.011Z,9.63
2023-03-20T11:02:21.785Z,10.10
2023-03-20T11:04:48.908Z,10.27
2023-03-20T11:07:24.766Z,9.53
2023-03-20T11:10:07.383Z,10.47
2023-03-20T11:12:35.989Z,10.20
2023-03-20T11:15:29.984Z,9.30
2023-03-20T11:18:01.094Z,9.27
2023-03-20T11:20:33.067Z,9.37
2023-03-20T11:23:02.001Z,7.93
2023-03-20T11:25:31.962Z,9.00
2023-03-20T11:27:59.550Z,8.50
2023-03-20T11:30:26.943Z,9.07
2023-03-20T11:32:56.772Z,8.33
2023-03-20T11:35:27.024Z,9.13
2023-03-20T11:37:55.473Z,7.83
2023-03-20T11:40:24.360Z,9.00
2023-03-20T11:42:56.584Z,7.93
2023-03-20T11:45:24.215Z,8.70
2023-03-20T11:47:52.523Z,8.10
2023-03-20T11:50:27.308Z,9.00
2023-03-20T11:52:54.720Z,7.87
2023-03-20T11:55:27.409Z,8.03
2023-03-20T11:57:59.190Z,8.60
2023-03-20T12:00:42.952Z,8.20
2023-03-20T12:03:28.770Z,8.20
2023-03-20T12:06:00.453Z,9.20
2023-03-20T12:08:28.170Z,9.13
2023-03-20T12:10:59.658Z,9.00
2023-03-20T12:13:29.530Z,9.57
2023-03-20T12:16:00.531Z,9.60
2023-03-20T12:18:27.586Z,9.30
2023-03-20T12:20:54.846Z,9.37
2023-03-20T12:23:32.222Z,9.70
2023-03-20T12:26:07.623Z,10.23
2023-03-20T12:28:40.602Z,9.13
2023-03-20T12:31:10.579Z,9.70
2023-03-20T12:33:41.375Z,10.37
2023-03-20T12:36:17.635Z,10.27
2023-03-20T12:38:45.335Z,10.63
2023-03-20T12:41:15.003Z,10.63
2023-03-20T12:43:42.062Z,10.30
2023-03-20T12:46:12.347Z,10.73
2023-03-20T12:48:39.395Z,11.03
2023-03-20T12:51:06.667Z,10.70
2023-03-20T12:53:39.567Z,10.97
2023-03-20T12:56:09.387Z,10.17
2023-03-20T12:58:45.778Z,10.23
2023-03-20T13:01:32.220Z,9.83
2023-03-20T13:04:02.358Z,10.77
2023-03-20T13:06:46.436Z,10.80
2023-03-20T13:09:32.079Z,10.23
2023-03-20T13:12:17.924Z,10.30
2023-03-20T13:14:48.072Z,10.23
2023-03-20T13:17:44.257Z,11.00
2023-03-20T13:20:30.021Z,11.60
2023-03-20T13:23:00.167Z,11.63
2023-03-20T13:25:36.719Z,10.80
2023-03-20T13:28:10.699Z,11.30
2023-03-20T13:30:40.971Z,11.73
2023-03-20T13:33:16.978Z,11.80
2023-03-20T13:35:53.817Z,11.90
2023-03-20T13:38:22.681Z,11.00
2023-03-20T13:40:53.950Z,11.03
2023-03-20T13:43:39.828Z,10.73
2023-03-20T13:46:10.229Z,11.07
2023-03-20T13:48:41.322Z,11.60
2023-03-20T13:51:14.985Z,11.10
2023-03-20T13:53:44.844Z,11.93
2023-03-20T13:56:30.636Z,11.57
2023-03-20T13:58:58.944Z,11.37
2023-03-20T14:01:47.312Z,11.83
2023-03-20T14:04:16.772Z,11.00
2023-03-20T14:06:45.288Z,10.87
2023-03-20T14:09:44.651Z,11.70
2023-03-20T14:12:13.095Z,11.37
2023-03-20T14:14:40.887Z,12.00
2023-03-20T14:17:28.290Z,11.47
2023-03-20T14:19:56.340Z,11.77
2023-03-20T14:22:24.933Z,11.90
2023-03-20T14:24:57.622Z,11.87
2023-03-20T14:27:42.891Z,12.30
2023-03-20T14:30:30.223Z,12.00
2023-03-20T14:33:23.316Z,11.60
2023-03-20T14:35:50.638Z,12.27
2023-03-20T14:38:36.269Z,11.57
2023-03-20T14:41:13.984Z,12.20
2023-03-20T14:43:58.648Z,11.73
2023-03-20T14:46:31.645Z,12.27
2023-03-20T14:49:03.480Z,12.80
2023-03-20T14:51:38.365Z,12.80
2023-03-20T14:54:23.613Z,12.13
2023-03-20T14:56:51.342Z,12.37
2023-03-20T14:59:20.275Z,13.57
2023-03-20T15:01:53.616Z,13.27
2023-03-20T15:04:36.518Z,13.53
2023-03-20T15:07:12.814Z,12.67
2023-03-20T15:09:43.029Z,13.57
2023-03-20T15:12:10.918Z,12.90
2023-03-20T15:14:42.355Z,14.67
2023-03-20T15:17:23.071Z,14.00
2023-03-20T15:19:50.171Z,13.97
2023-03-20T15:22:19.250Z,14.07
2023-03-20T15:24:53.445Z,14.20
2023-03-20T15:27:21.103Z,14.33
2023-03-20T15:29:51.632Z,14.00
2023-03-20T15:32:18.913Z,14.80
2023-03-20T15:34:47.415Z,14.37
2023-03-20T15:37:16.063Z,14.73
2023-03-20T15:39:45.013Z,14.97
2023-03-20T15:42:20.230Z,14.80
2023-03-20T15:44:48.493Z,15.60
2023-03-20T15:47:25.917Z,14.77
2023-03-20T15:50:04.514Z,15.47
2023-03-20T15:52:33.777Z,16.03
2023-03-20T15:55:03.438Z,15.30
2023-03-20T15:57:35.878Z,14.67
2023-03-20T16:00:05.526Z,15.37
2023-03-20T16:02:32.640Z,14.67
2023-03-20T16:04:59.724Z,14.80
2023-03-20T16:07:33.590Z,15.40
2023-03-20T16:10:00.973Z,14.43
2023-03-20T16:12:28.341Z,14.23
2023-03-20T16:14:56.271Z,14.60
2023-03-20T16:17:24.507Z,15.07
2023-03-20T16:19:51.931Z,14.60
2023-03-20T16:22:27.204Z,13.90
2023-03-20T16:24:58.381Z,13.93
2023-03-20T16:27:29.945Z,13.97
2023-03-20T16:29:57.703Z,13.83
2023-03-20T16:32:28.032Z,13.83
2023-03-20T16:34:57.219Z,13.60
2023-03-20T16:37:24.296Z,14.07
2023-03-20T16:40:02.287Z,12.73
2023-03-20T16:42:29.721Z,12.93
2023-03-20T16:44:57.987Z,12.50
2023-03-20T16:47:32.591Z,13.57
2023-03-20T16:50:03.425Z,12.87
2023-03-20T16:52:31.671Z,36.73
2023-03-20T16:54:59.520Z,17.23
2023-03-20T16:57:28.108Z,14.10
2023-03-20T16:59:58.635Z,13.27
2023-03-20T17:02:28.639Z,13.63
2023-03-20T17:05:02.843Z,14.20
2023-03-20T17:07:30.683Z,13.53
2023-03-20T17:10:16.628Z,13.37
2023-03-20T17:12:44.865Z,13.00
2023-03-20T17:15:18.781Z,12.93
2023-03-20T17:17:45.832Z,13.80
2023-03-20T17:20:31.934Z,13.17
2023-03-20T17:22:59.056Z,13.30
2023-03-20T17:25:26.485Z,13.40
2023-03-20T17:27:53.625Z,13.23
2023-03-20T17:30:22.084Z,12.40
2023-03-20T17:32:49.359Z,12.10
2023-03-20T17:35:16.532Z,13.27
2023-03-20T17:37:43.699Z,12.63
2023-03-20T17:40:21.782Z,12.90
2023-03-20T17:42:49.137Z,13.77
2023-03-20T17:45:20.019Z,13.37
2023-03-20T17:47:47.922Z,12.57
2023-03-20T17:50:19.700Z,13.23
2023-03-20T17:52:46.842Z,13.30
2023-03-20T17:55:15.587Z,14.07
2023-03-20T17:57:43.130Z,13.73
2023-03-20T18:00:15.696Z,13.57
2023-03-20T18:02:43.034Z,14.20
2023-03-20T18:05:10.557Z,13.20
2023-03-20T18:07:37.685Z,13.63
2023-03-20T18:10:05.475Z,14.13
2023-03-20T18:12:34.471Z,13.73
2023-03-20T18:15:01.625Z,13.73
2023-03-20T18:17:28.899Z,12.70
2023-03-20T18:19:56.053Z,13.60
2023-03-20T18:22:23.198Z,13.53
2023-03-20T18:24:50.345Z,12.77
2023-03-20T18:27:17.435Z,11.83
2023-03-20T18:29:44.529Z,11.73
2023-03-20T18:32:11.714Z,11.07
2023-03-20T18:34:40.560Z,10.47
2023-03-20T18:37:13.063Z,8.87
2023-03-20T18:39:40.280Z,9.63
2023-03-20T18:42:07.325Z,9.43
2023-03-20T18:44:34.452Z,8.70
2023-03-20T18:47:01.505Z,9.40
2023-03-20T18:49:28.579Z,9.40
2023-03-20T18:51:55.671Z,8.90
2023-03-20T18:54:22.744Z,8.90
2023-03-20T18:56:51.617Z,8.10
2023-03-20T18:59:19.458Z,8.80
2023-03-20T19:01:46.791Z,9.63
2023-03-20T19:04:13.896Z,9.43
2023-03-20T19:06:41.032Z,9.97
2023-03-20T19:09:10.519Z,9.30
2023-03-20T19:11:37.624Z,9.67
2023-03-20T19:14:04.735Z,9.20
2023-03-20T19:16:34.904Z,8.93
2023-03-20T19:19:03.117Z,8.83
2023-03-20T19:21:31.413Z,8.33
2023-03-20T19:23:59.392Z,8.83
2023-03-20T19:26:27.313Z,8.97
2023-03-20T19:28:55.444Z,8.90
2023-03-20T19:31:23.203Z,8.70
2023-03-20T19:33:50.796Z,9.10
2023-03-20T19:36:24.391Z,8.37
2023-03-20T19:38:51.726Z,8.97
2023-03-20T19:41:20.023Z,8.83
2023-03-20T19:43:53.172Z,8.63
2023-03-20T19:46:39.275Z,8.53
2023-03-20T19:49:07.737Z,8.37
2023-03-20T19:51:34.881Z,8.60
2023-03-20T19:54:02.055Z,8.80
2023-03-20T19:56:29.118Z,9.07
2023-03-20T19:58:56.195Z,8.73
2023-03-20T20:01:25.074Z,8.37
2023-03-20T20:03:57.328Z,8.47
2023-03-20T20:06:30.930Z,8.90
2023-03-20T20:08:59.143Z,8.80
2023-03-20T20:11:26.254Z,8.73
2023-03-20T20:14:10.378Z,8.30
2023-03-20T20:16:42.383Z,7.63
2023-03-20T20:19:09.570Z,7.93
2023-03-20T20:22:17.227Z,8.23
2023-03-20T20:24:23.735Z,7.50
2023-03-20T20:26:55.238Z,8.50
2023-03-20T20:29:28.060Z,6.90
2023-03-20T20:31:55.338Z,7.80
2023-03-20T20:35:22.680Z,7.80
2023-03-20T20:37:51.649Z,7.37
2023-03-20T20:39:57.508Z,7.10
2023-03-20T20:42:24.718Z,8.10
2023-03-20T20:44:51.795Z,7.60
2023-03-20T20:47:18.946Z,7.50
2023-03-20T20:49:47.295Z,7.13
2023-03-20T20:52:15.575Z,7.10
2023-03-20T20:54:42.669Z,6.87
2023-03-20T20:57:14.264Z,7.70
2023-03-20T20:59:41.476Z,7.17
2023-03-20T21:02:12.553Z,7.33
2023-03-20T21:04:40.499Z,7.23
2023-03-20T21:07:10.686Z,6.90
2023-03-20T21:09:38.891Z,7.50
2023-03-20T21:12:06.430Z,6.90
2023-03-20T21:14:33.813Z,7.90
2023-03-20T21:17:01.403Z,7.57
2023-03-20T21:19:34.141Z,6.93
2023-03-20T21:22:01.247Z,7.43
2023-03-20T21:24:33.962Z,7.60
2023-03-20T21:27:05.261Z,7.20
2023-03-20T21:29:32.344Z,7.20
2023-03-20T21:31:59.485Z,7.37
2023-03-20T21:34:28.911Z,6.83
2023-03-20T21:36:57.884Z,7.17
2023-03-20T21:39:28.373Z,6.53
2023-03-20T21:41:55.635Z,7.00
2023-03-20T21:45:00.057Z,6.90
2023-03-20T21:48:01.021Z,7.20
2023-03-20T21:56:31.351Z,6.60
2023-03-20T22:01:53.248Z,6.80
2023-03-20T22:07:32.113Z,7.10
2023-03-20T22:13:03.615Z,6.40
2023-03-20T22:18:42.622Z,8.27
2023-03-20T22:21:22.362Z,7.03
2023-03-20T22:27:10.799Z,7.97
2023-03-20T22:35:27.604Z,7.73
2023-03-20T22:40:59.236Z,8.33
2023-03-20T22:43:59.708Z,8.17
2023-03-20T22:46:03.236Z,8.50
2023-03-20T22:48:34.886Z,8.47
2023-03-20T22:51:02.111Z,7.93
2023-03-20T22:53:30.927Z,7.80
2023-03-20T22:55:58.090Z,7.00
2023-03-20T22:58:25.473Z,7.63
2023-03-20T23:00:54.887Z,6.80
2023-03-20T23:03:39.893Z,7.10
2023-03-20T23:06:09.052Z,7.50
2023-03-20T23:08:48.028Z,6.60
2023-03-20T23:11:18.058Z,7.43
2023-03-20T23:13:46.098Z,6.43
2023-03-20T23:16:13.294Z,6.80
2023-03-20T23:18:40.441Z,6.83
2023-03-20T23:21:07.899Z,7.50
2023-03-20T23:23:35.239Z,6.80
2023-03-20T23:26:09.945Z,7.97
2023-03-20T23:28:37.743Z,7.60
2023-03-20T23:31:11.225Z,7.47
2023-03-20T23:33:39.216Z,7.70
2023-03-20T23:36:18.702Z,7.80
2023-03-20T23:38:52.204Z,7.43
2023-03-20T23:41:19.468Z,8.20
2023-03-20T23:43:46.518Z,7.70
2023-03-20T23:46:13.803Z,8.10
2023-03-20T23:48:40.957Z,7.80
2023-03-20T23:51:08.576Z,7.73
2023-03-20T23:53:35.650Z,7.93
2023-03-20T23:56:03.175Z,8.03
2023-03-20T23:58:30.726Z,7.67
